Mestre Emiliano — CUSN — position and weather

sailwx.info

Track history (hours):
 
Tides and Currents Weather Stations Pressure Air Temp Water Temp Dewpoint Dewpoint Depression Visibility Wind Speed Wind Dir Waves Ship Positions

Mestre Emiliano

Last reported at 2017-Sep-14 13:49 UTC. Time now 2017-Sep-25 13:39 UTC.
Position N 36°54' W 007°49'.
Warning: this ship's position is 10 days out of date.

Length 24 m.

Type: Fishing. MMSI: 263237000.

Date/timePositionNaut miles runAvg speedWind from/ knotsBaromVisibWave heightAir tempDewpointWater temp
2017-Sep-14 13:49N 36°54' W 007°49'4 9.8
2017-Sep-14 13:25N 36°53' W 007°54'2 3.7
2017-Sep-14 13:00N 36°52' W 007°55'2 3.1
2017-Sep-14 12:30N 36°52' W 007°57'2 3.1
2017-Sep-14 11:59N 36°51' W 007°59'2 3.1
2017-Sep-14 11:28N 36°51' W 008°01'1 3.1
2017-Sep-14 11:01N 36°50' W 008°03'2 3.0
2017-Sep-14 10:31N 36°50' W 008°05'1 2.9
2017-Sep-14 10:01N 36°50' W 008°06'0 0.7
2017-Sep-14 09:27N 36°49' W 008°07'1 2.7
2017-Sep-14 08:58N 36°50' W 008°05'1 3.0
2017-Sep-14 08:28N 36°50' W 008°03'1 3.0
2017-Sep-14 07:59N 36°50' W 008°02'2 3.0
2017-Sep-14 07:27N 36°51' W 007°60'5 3.0
2017-Sep-14 05:55N 36°52' W 007°54'6 8.7
2017-Sep-14 05:17N 36°46' W 007°53'2 7.5
2017-Sep-14 05:01N 36°46' W 007°56'5 9.3
2017-Sep-14 04:30N 36°43' W 008°00'5 9.1
2017-Sep-14 04:00N 36°41' W 008°06'3 6.7
2017-Sep-14 03:30N 36°40' W 008°10'0 0.6
2017-Sep-14 03:00N 36°40' W 008°09'1 2.6
2017-Sep-14 02:30N 36°40' W 008°11'2 2.6
2017-Sep-14 01:54N 36°40' W 008°13'3 2.5
2017-Sep-14 00:44N 36°39' W 008°16'1 2.5
2017-Sep-14 00:18N 36°39' W 008°18'1 2.5
2017-Sep-13 23:58N 36°39' W 008°19'1 2.6
2017-Sep-13 23:23N 36°39' W 008°21'2 2.7
2017-Sep-13 22:35N 36°40' W 008°23'1 2.5
2017-Sep-13 22:22N 36°40' W 008°24'1 2.3
2017-Sep-13 21:53N 36°40' W 008°25'1 0.7
2017-Sep-13 20:00N 36°40' W 008°27'2 2.9
2017-Sep-13 19:10N 36°39' W 008°24'0 2.9
2017-Sep-13 19:00N 36°39' W 008°24'8 3.0
2017-Sep-13 16:19N 36°40' W 008°13'1 3.0
2017-Sep-13 16:00N 36°40' W 008°12'6 4.6
2017-Sep-13 14:35N 36°43' W 008°06'1 9.3
2017-Sep-13 14:29N 36°44' W 008°05'9 0.4
2017-Sep-12 16:01N 36°50' W 007°58'1 9.9
2017-Sep-12 15:58N 36°50' W 007°58'4 9.7
2017-Sep-12 15:30N 36°46' W 008°01'5 9.5
2017-Sep-12 15:00N 36°43' W 008°05'4 2.7
2017-Sep-12 13:22N 36°40' W 008°10'1 2.6
2017-Sep-12 13:00N 36°40' W 008°11'11 2.6
2017-Sep-12 08:56N 36°39' W 008°24'1 2.4
2017-Sep-12 08:29N 36°40' W 008°25'1 2.3
2017-Sep-12 08:00N 36°40' W 008°27'2 3.7
2017-Sep-12 07:30N 36°40' W 008°29'8 2.3
2017-Sep-12 04:07N 36°40' W 008°19'9 3.1
2017-Sep-12 01:17N 36°41' W 008°09'0 1.3
2017-Sep-12 01:00N 36°41' W 008°09'0 0.3
2017-Sep-12 00:30N 36°41' W 008°09'12 2.6
2017-Sep-11 19:48N 36°39' W 008°24'1 2.6
2017-Sep-11 19:29N 36°39' W 008°25'3 2.6
2017-Sep-11 18:17N 36°40' W 008°29'18 2.6
2017-Sep-11 11:29N 36°41' W 008°07'6 2.1
2017-Sep-11 08:39N 36°40' W 008°14'2 2.8
2017-Sep-11 07:54N 36°39' W 008°17'2 2.7
2017-Sep-11 07:02N 36°39' W 008°20'0 2.7
2017-Sep-11 07:00N 36°39' W 008°20'1 2.7
2017-Sep-11 06:30N 36°39' W 008°22'3 2.7
2017-Sep-11 05:33N 36°40' W 008°25'0 2.3
2017-Sep-11 05:30N 36°40' W 008°25'1 2.2
2017-Sep-11 04:57N 36°40' W 008°26'2 4.4
2017-Sep-11 04:30N 36°40' W 008°29'0 0.8
2017-Sep-11 03:58N 36°40' W 008°29'0 0.2
2017-Sep-11 03:29N 36°40' W 008°29'1 2.6
2017-Sep-11 02:59N 36°40' W 008°28'32 2.8
2017-Sep-10 15:33N 36°56' W 007°53'110.0
2017-Sep-10 15:29N 36°55' W 007°54'610.2
2017-Sep-10 14:56N 36°51' W 007°58'910.2
2017-Sep-10 14:00N 36°43' W 008°06'4 8.2
2017-Sep-10 13:30N 36°40' W 008°09'0 0.3
2017-Sep-10 12:56N 36°40' W 008°09'4 0.1
2017-Sep-08 23:43N 36°40' W 008°13'1 2.9
2017-Sep-08 23:30N 36°40' W 008°12'2 2.9
2017-Sep-08 22:58N 36°40' W 008°11'1 2.3
2017-Sep-08 22:30N 36°40' W 008°09'2 4.0
2017-Sep-08 22:00N 36°41' W 008°07'2 3.3
2017-Sep-08 21:30N 36°40' W 008°08'1 1.2
2017-Sep-08 21:00N 36°40' W 008°09'3 2.2
2017-Sep-08 19:49N 36°40' W 008°12'3 2.8
2017-Sep-08 18:42N 36°39' W 008°16'1 2.8
2017-Sep-08 18:30N 36°39' W 008°17'1 2.8
2017-Sep-08 18:00N 36°39' W 008°18'1 2.7
2017-Sep-08 17:30N 36°39' W 008°20'1 2.7
2017-Sep-08 17:00N 36°39' W 008°22'1 2.8
2017-Sep-08 16:30N 36°39' W 008°23'4 2.6
2017-Sep-08 14:51N 36°40' W 008°29'2 1.6
2017-Sep-08 13:24N 36°40' W 008°26'2 3.0
2017-Sep-08 12:45N 36°39' W 008°24'4 3.0
2017-Sep-08 11:23N 36°39' W 008°18'9 2.9
2017-Sep-08 08:21N 36°41' W 008°08'1 2.6
2017-Sep-08 08:00N 36°40' W 008°09'6 2.3
2017-Sep-08 05:12N 36°39' W 008°16'1 2.7
2017-Sep-08 05:00N 36°39' W 008°17'1 2.7
2017-Sep-08 04:30N 36°39' W 008°19'1 2.7
2017-Sep-08 04:00N 36°39' W 008°20'1 2.7
2017-Sep-08 03:30N 36°39' W 008°22'1 2.8
2017-Sep-08 03:00N 36°40' W 008°24'1 2.3
2017-Sep-08 02:30N 36°40' W 008°25'2 3.7
2017-Sep-08 01:59N 36°40' W 008°28'2 1.1
2017-Sep-07 23:59N 36°40' W 008°25'1 2.9
2017-Sep-07 23:30N 36°39' W 008°23'2 3.0
2017-Sep-07 23:00N 36°39' W 008°21'1 3.0
2017-Sep-07 22:30N 36°39' W 008°19'1 3.0
2017-Sep-07 22:00N 36°39' W 008°18'1 2.9
2017-Sep-07 21:30N 36°39' W 008°16'2 3.0
2017-Sep-07 21:00N 36°40' W 008°14'2 2.9
2017-Sep-07 20:26N 36°40' W 008°12'1 2.9
2017-Sep-07 19:59N 36°40' W 008°10'1 2.8
2017-Sep-07 19:30N 36°41' W 008°09'1 2.4
2017-Sep-07 19:00N 36°41' W 008°07'0 0.6
2017-Sep-07 18:30N 36°41' W 008°07'1 2.6
2017-Sep-07 18:00N 36°41' W 008°08'2 2.6
2017-Sep-07 17:11N 36°40' W 008°11'0 2.6
2017-Sep-07 17:00N 36°40' W 008°12'1 2.6
2017-Sep-07 16:30N 36°40' W 008°13'10 2.6
2017-Sep-07 12:49N 36°40' W 008°25'1 2.8
2017-Sep-07 12:31N 36°40' W 008°26'2 2.7
2017-Sep-07 11:39N 36°39' W 008°24'13 2.4
2017-Sep-07 06:05N 36°41' W 008°07'10 2.3
2017-Sep-07 01:36N 36°39' W 008°20'0 2.7
2017-Sep-07 01:27N 36°39' W 008°20'3 2.6
2017-Sep-07 00:22N 36°40' W 008°24'9 1.5
2017-Sep-06 18:33N 36°40' W 008°13'0 2.9
2017-Sep-06 18:29N 36°40' W 008°12'1 2.9
2017-Sep-06 18:00N 36°40' W 008°11'1 2.7
2017-Sep-06 17:28N 36°40' W 008°09'2 3.8
2017-Sep-06 16:57N 36°41' W 008°07'19 0.8
2017-Sep-05 16:32N 36°53' W 007°49'4 9.2
2017-Sep-05 16:04N 36°50' W 007°53'3 9.4
2017-Sep-05 15:47N 36°49' W 007°56'3 9.3
2017-Sep-05 15:30N 36°47' W 007°58'5 9.6
2017-Sep-05 15:01N 36°45' W 008°03'12 4.1
2017-Sep-05 12:05N 36°39' W 008°16'0 2.7
2017-Sep-05 12:00N 36°39' W 008°17'7 0.4
2017-Sep-04 17:42N 36°40' W 008°08'1 3.7
2017-Sep-04 17:24N 36°41' W 008°07'1 1.1
2017-Sep-04 16:49N 36°41' W 008°08'  
Track history (hours):
 
Tides and Currents Weather Stations Pressure Air Temp Water Temp Dewpoint Dewpoint Depression Visibility Wind Speed Wind Dir Waves Ship Positions

Mestre Emiliano

Last reported at 2017-Sep-14 13:49 UTC. Time now 2017-Sep-25 13:39 UTC.
Position N 36°54' W 007°49'.
Warning: this ship's position is 10 days out of date.

Length 24 m.

Type: Fishing. MMSI: 263237000.

Date/timePositionNaut miles runAvg speedWind from/ knotsBaromVisibWave heightAir tempDewpointWater temp
2017-Sep-14 13:49N 36°54' W 007°49'4 9.8
2017-Sep-14 13:25N 36°53' W 007°54'2 3.7
2017-Sep-14 13:00N 36°52' W 007°55'2 3.1
2017-Sep-14 12:30N 36°52' W 007°57'2 3.1
2017-Sep-14 11:59N 36°51' W 007°59'2 3.1
2017-Sep-14 11:28N 36°51' W 008°01'1 3.1
2017-Sep-14 11:01N 36°50' W 008°03'2 3.0
2017-Sep-14 10:31N 36°50' W 008°05'1 2.9
2017-Sep-14 10:01N 36°50' W 008°06'0 0.7
2017-Sep-14 09:27N 36°49' W 008°07'1 2.7
2017-Sep-14 08:58N 36°50' W 008°05'1 3.0
2017-Sep-14 08:28N 36°50' W 008°03'1 3.0
2017-Sep-14 07:59N 36°50' W 008°02'2 3.0
2017-Sep-14 07:27N 36°51' W 007°60'5 3.0
2017-Sep-14 05:55N 36°52' W 007°54'6 8.7
2017-Sep-14 05:17N 36°46' W 007°53'2 7.5
2017-Sep-14 05:01N 36°46' W 007°56'5 9.3
2017-Sep-14 04:30N 36°43' W 008°00'5 9.1
2017-Sep-14 04:00N 36°41' W 008°06'3 6.7
2017-Sep-14 03:30N 36°40' W 008°10'0 0.6
2017-Sep-14 03:00N 36°40' W 008°09'1 2.6
2017-Sep-14 02:30N 36°40' W 008°11'2 2.6
2017-Sep-14 01:54N 36°40' W 008°13'3 2.5
2017-Sep-14 00:44N 36°39' W 008°16'1 2.5
2017-Sep-14 00:18N 36°39' W 008°18'1 2.5
2017-Sep-13 23:58N 36°39' W 008°19'1 2.6
2017-Sep-13 23:23N 36°39' W 008°21'2 2.7
2017-Sep-13 22:35N 36°40' W 008°23'1 2.5
2017-Sep-13 22:22N 36°40' W 008°24'1 2.3
2017-Sep-13 21:53N 36°40' W 008°25'1 0.7
2017-Sep-13 20:00N 36°40' W 008°27'2 2.9
2017-Sep-13 19:10N 36°39' W 008°24'0 2.9
2017-Sep-13 19:00N 36°39' W 008°24'8 3.0
2017-Sep-13 16:19N 36°40' W 008°13'1 3.0
2017-Sep-13 16:00N 36°40' W 008°12'6 4.6
2017-Sep-13 14:35N 36°43' W 008°06'1 9.3
2017-Sep-13 14:29N 36°44' W 008°05'9 0.4
2017-Sep-12 16:01N 36°50' W 007°58'1 9.9
2017-Sep-12 15:58N 36°50' W 007°58'4 9.7
2017-Sep-12 15:30N 36°46' W 008°01'5 9.5
2017-Sep-12 15:00N 36°43' W 008°05'4 2.7
2017-Sep-12 13:22N 36°40' W 008°10'1 2.6
2017-Sep-12 13:00N 36°40' W 008°11'11 2.6
2017-Sep-12 08:56N 36°39' W 008°24'1 2.4
2017-Sep-12 08:29N 36°40' W 008°25'1 2.3
2017-Sep-12 08:00N 36°40' W 008°27'2 3.7
2017-Sep-12 07:30N 36°40' W 008°29'8 2.3
2017-Sep-12 04:07N 36°40' W 008°19'9 3.1
2017-Sep-12 01:17N 36°41' W 008°09'0 1.3
2017-Sep-12 01:00N 36°41' W 008°09'0 0.3
2017-Sep-12 00:30N 36°41' W 008°09'12 2.6
2017-Sep-11 19:48N 36°39' W 008°24'1 2.6
2017-Sep-11 19:29N 36°39' W 008°25'3 2.6
2017-Sep-11 18:17N 36°40' W 008°29'18 2.6
2017-Sep-11 11:29N 36°41' W 008°07'6 2.1
2017-Sep-11 08:39N 36°40' W 008°14'2 2.8
2017-Sep-11 07:54N 36°39' W 008°17'2 2.7
2017-Sep-11 07:02N 36°39' W 008°20'0 2.7
2017-Sep-11 07:00N 36°39' W 008°20'1 2.7
2017-Sep-11 06:30N 36°39' W 008°22'3 2.7
2017-Sep-11 05:33N 36°40' W 008°25'0 2.3
2017-Sep-11 05:30N 36°40' W 008°25'1 2.2
2017-Sep-11 04:57N 36°40' W 008°26'2 4.4
2017-Sep-11 04:30N 36°40' W 008°29'0 0.8
2017-Sep-11 03:58N 36°40' W 008°29'0 0.2
2017-Sep-11 03:29N 36°40' W 008°29'1 2.6
2017-Sep-11 02:59N 36°40' W 008°28'32 2.8
2017-Sep-10 15:33N 36°56' W 007°53'110.0
2017-Sep-10 15:29N 36°55' W 007°54'610.2
2017-Sep-10 14:56N 36°51' W 007°58'910.2
2017-Sep-10 14:00N 36°43' W 008°06'4 8.2
2017-Sep-10 13:30N 36°40' W 008°09'0 0.3
2017-Sep-10 12:56N 36°40' W 008°09'4 0.1
2017-Sep-08 23:43N 36°40' W 008°13'1 2.9
2017-Sep-08 23:30N 36°40' W 008°12'2 2.9
2017-Sep-08 22:58N 36°40' W 008°11'1 2.3
2017-Sep-08 22:30N 36°40' W 008°09'2 4.0
2017-Sep-08 22:00N 36°41' W 008°07'2 3.3
2017-Sep-08 21:30N 36°40' W 008°08'1 1.2
2017-Sep-08 21:00N 36°40' W 008°09'3 2.2
2017-Sep-08 19:49N 36°40' W 008°12'3 2.8
2017-Sep-08 18:42N 36°39' W 008°16'1 2.8
2017-Sep-08 18:30N 36°39' W 008°17'1 2.8
2017-Sep-08 18:00N 36°39' W 008°18'1 2.7
2017-Sep-08 17:30N 36°39' W 008°20'1 2.7
2017-Sep-08 17:00N 36°39' W 008°22'1 2.8
2017-Sep-08 16:30N 36°39' W 008°23'4 2.6
2017-Sep-08 14:51N 36°40' W 008°29'2 1.6
2017-Sep-08 13:24N 36°40' W 008°26'2 3.0
2017-Sep-08 12:45N 36°39' W 008°24'4 3.0
2017-Sep-08 11:23N 36°39' W 008°18'9 2.9
2017-Sep-08 08:21N 36°41' W 008°08'1 2.6
2017-Sep-08 08:00N 36°40' W 008°09'6 2.3
2017-Sep-08 05:12N 36°39' W 008°16'1 2.7
2017-Sep-08 05:00N 36°39' W 008°17'1 2.7
2017-Sep-08 04:30N 36°39' W 008°19'1 2.7
2017-Sep-08 04:00N 36°39' W 008°20'1 2.7
2017-Sep-08 03:30N 36°39' W 008°22'1 2.8
2017-Sep-08 03:00N 36°40' W 008°24'1 2.3
2017-Sep-08 02:30N 36°40' W 008°25'2 3.7
2017-Sep-08 01:59N 36°40' W 008°28'2 1.1
2017-Sep-07 23:59N 36°40' W 008°25'1 2.9
2017-Sep-07 23:30N 36°39' W 008°23'2 3.0
2017-Sep-07 23:00N 36°39' W 008°21'1 3.0
2017-Sep-07 22:30N 36°39' W 008°19'1 3.0
2017-Sep-07 22:00N 36°39' W 008°18'1 2.9
2017-Sep-07 21:30N 36°39' W 008°16'2 3.0
2017-Sep-07 21:00N 36°40' W 008°14'2 2.9
2017-Sep-07 20:26N 36°40' W 008°12'1 2.9
2017-Sep-07 19:59N 36°40' W 008°10'1 2.8
2017-Sep-07 19:30N 36°41' W 008°09'1 2.4
2017-Sep-07 19:00N 36°41' W 008°07'0 0.6
2017-Sep-07 18:30N 36°41' W 008°07'1 2.6
2017-Sep-07 18:00N 36°41' W 008°08'2 2.6
2017-Sep-07 17:11N 36°40' W 008°11'0 2.6
2017-Sep-07 17:00N 36°40' W 008°12'1 2.6
2017-Sep-07 16:30N 36°40' W 008°13'10 2.6
2017-Sep-07 12:49N 36°40' W 008°25'1 2.8
2017-Sep-07 12:31N 36°40' W 008°26'2 2.7
2017-Sep-07 11:39N 36°39' W 008°24'13 2.4
2017-Sep-07 06:05N 36°41' W 008°07'10 2.3
2017-Sep-07 01:36N 36°39' W 008°20'0 2.7
2017-Sep-07 01:27N 36°39' W 008°20'3 2.6
2017-Sep-07 00:22N 36°40' W 008°24'9 1.5
2017-Sep-06 18:33N 36°40' W 008°13'0 2.9
2017-Sep-06 18:29N 36°40' W 008°12'1 2.9
2017-Sep-06 18:00N 36°40' W 008°11'1 2.7
2017-Sep-06 17:28N 36°40' W 008°09'2 3.8
2017-Sep-06 16:57N 36°41' W 008°07'19 0.8
2017-Sep-05 16:32N 36°53' W 007°49'4 9.2
2017-Sep-05 16:04N 36°50' W 007°53'3 9.4
2017-Sep-05 15:47N 36°49' W 007°56'3 9.3
2017-Sep-05 15:30N 36°47' W 007°58'5 9.6
2017-Sep-05 15:01N 36°45' W 008°03'12 4.1
2017-Sep-05 12:05N 36°39' W 008°16'0 2.7
2017-Sep-05 12:00N 36°39' W 008°17'7 0.4
2017-Sep-04 17:42N 36°40' W 008°08'1 3.7
2017-Sep-04 17:24N 36°41' W 008°07'1 1.1
2017-Sep-04 16:49N 36°41' W 008°08'  

Dump ship's entire track history